createdAt,value
2023-01-05T00:00:11.649Z,100246.13
2023-01-05T00:02:38.065Z,100255.09
2023-01-05T00:05:01.623Z,100244.09
2023-01-05T00:07:25.184Z,100247.75
2023-01-05T00:09:50.069Z,100238.00
2023-01-05T00:12:31.481Z,100248.63
2023-01-05T00:15:20.586Z,100239.53
2023-01-05T00:18:01.660Z,100244.25
2023-01-05T00:20:42.885Z,100247.50
2023-01-05T00:23:09.094Z,100258.22
2023-01-05T00:25:38.431Z,100247.19
2023-01-05T00:28:02.019Z,100254.41
2023-01-05T00:30:28.873Z,100253.56
2023-01-05T00:32:52.746Z,100257.53
2023-01-05T00:35:17.882Z,100253.16
2023-01-05T00:37:41.897Z,100248.22
2023-01-05T00:40:06.992Z,100247.19
2023-01-05T00:42:31.964Z,100243.00
2023-01-05T00:44:55.621Z,100237.34
2023-01-05T00:47:19.243Z,100243.28
2023-01-05T00:49:43.158Z,100255.97
2023-01-05T00:52:07.614Z,100234.34
2023-01-05T00:54:31.140Z,100247.38
2023-01-05T00:56:54.723Z,100241.72
2023-01-05T00:59:20.120Z,100238.16
2023-01-05T01:01:43.866Z,100253.75
2023-01-05T01:04:07.602Z,100249.94
2023-01-05T01:06:31.909Z,100247.81
2023-01-05T01:08:55.418Z,100243.84
2023-01-05T01:11:19.081Z,100244.84
2023-01-05T01:13:42.600Z,100233.94
2023-01-05T01:16:12.167Z,100240.59
2023-01-05T01:18:37.535Z,100245.97
2023-01-05T01:21:01.120Z,100243.59
2023-01-05T01:23:24.914Z,100247.38
2023-01-05T01:25:48.498Z,100251.50
2023-01-05T01:28:12.103Z,100259.97
2023-01-05T01:30:35.677Z,100251.47
2023-01-05T01:33:00.609Z,100249.63
2023-01-05T01:35:24.165Z,100253.44
2023-01-05T01:37:47.830Z,100258.56
2023-01-05T01:40:13.380Z,100251.03
2023-01-05T01:42:37.247Z,100244.97
2023-01-05T01:45:03.180Z,100259.38
2023-01-05T01:47:43.918Z,100253.28
2023-01-05T01:50:17.011Z,100256.84
2023-01-05T01:52:41.777Z,100252.03
2023-01-05T01:55:08.079Z,100260.38
2023-01-05T01:57:31.786Z,100262.34
2023-01-05T01:59:55.646Z,100252.16
2023-01-05T02:02:20.115Z,100250.94
2023-01-05T02:04:45.145Z,100235.88
2023-01-05T02:07:13.364Z,100241.25
2023-01-05T02:09:36.989Z,100246.78
2023-01-05T02:12:16.916Z,100243.59
2023-01-05T02:14:51.443Z,100246.38
2023-01-05T02:17:29.933Z,100234.81
2023-01-05T02:20:38.738Z,100241.59
2023-01-05T02:23:34.644Z,100238.88
2023-01-05T02:27:09.874Z,100232.38
2023-01-05T02:30:14.078Z,100239.75
2023-01-05T02:32:47.882Z,100239.19
2023-01-05T02:35:23.871Z,100246.84
2023-01-05T02:37:53.919Z,100227.31
2023-01-05T02:40:23.136Z,100240.03
2023-01-05T02:42:49.358Z,100242.00
2023-01-05T02:45:17.814Z,100240.16
2023-01-05T02:47:44.723Z,100235.38
2023-01-05T02:50:17.432Z,100227.88
2023-01-05T02:52:46.490Z,100226.59
2023-01-05T02:55:18.051Z,100228.00
2023-01-05T02:57:50.856Z,100237.19
2023-01-05T03:00:25.249Z,100229.13
2023-01-05T03:02:56.681Z,100235.22
2023-01-05T03:05:26.919Z,100242.44
2023-01-05T03:07:53.283Z,100232.25
2023-01-05T03:10:34.675Z,100227.72
2023-01-05T03:13:25.186Z,100246.81
2023-01-05T03:15:50.928Z,100239.31
2023-01-05T03:18:20.588Z,100231.41
2023-01-05T03:20:51.458Z,100234.50
2023-01-05T03:23:35.154Z,100226.75
2023-01-05T03:26:16.864Z,100230.97
2023-01-05T03:29:01.799Z,100241.88
2023-01-05T03:31:53.831Z,100245.25
2023-01-05T03:34:45.262Z,100244.81
2023-01-05T03:37:14.064Z,100254.13
2023-01-05T03:39:42.829Z,100256.81
2023-01-05T03:42:06.868Z,100259.38
2023-01-05T03:44:30.414Z,100257.91
2023-01-05T03:46:54.876Z,100261.75
2023-01-05T03:49:20.048Z,100266.94
2023-01-05T03:51:45.142Z,100265.25
2023-01-05T03:54:09.164Z,100274.56
2023-01-05T03:56:33.984Z,100275.59
2023-01-05T03:58:57.584Z,100274.84
2023-01-05T04:01:22.181Z,100279.59
2023-01-05T04:03:45.900Z,100292.03
2023-01-05T04:06:11.543Z,100290.13
2023-01-05T04:08:36.064Z,100296.06
2023-01-05T04:11:11.890Z,100298.72
2023-01-05T04:13:35.691Z,100300.25
2023-01-05T04:15:59.283Z,100297.41
2023-01-05T04:18:23.364Z,100300.94
2023-01-05T04:20:47.062Z,100298.63
2023-01-05T04:23:12.630Z,100299.09
2023-01-05T04:25:36.168Z,100304.91
2023-01-05T04:28:10.458Z,100319.75
2023-01-05T04:30:35.203Z,100317.66
2023-01-05T04:33:00.487Z,100310.34
2023-01-05T04:35:26.052Z,100320.50
2023-01-05T04:37:49.662Z,100317.81
2023-01-05T04:40:15.198Z,100311.56
2023-01-05T04:42:44.552Z,100303.19
2023-01-05T04:45:09.442Z,100319.13
2023-01-05T04:47:33.288Z,100309.59
2023-01-05T04:49:57.018Z,100312.34
2023-01-05T04:52:20.636Z,100317.47
2023-01-05T04:54:45.132Z,100326.97
2023-01-05T04:57:10.265Z,100329.09
2023-01-05T04:59:35.746Z,100334.56
2023-01-05T05:02:00.670Z,100340.63
2023-01-05T05:04:26.412Z,100337.56
2023-01-05T05:06:49.976Z,100334.66
2023-01-05T05:09:15.368Z,100341.91
2023-01-05T05:11:38.966Z,100334.75
2023-01-05T05:14:04.818Z,100340.50
2023-01-05T05:16:28.586Z,100339.63
2023-01-05T05:18:52.351Z,100342.25
2023-01-05T05:21:20.489Z,100338.91
2023-01-05T05:23:44.129Z,100346.13
2023-01-05T05:26:07.733Z,100330.94
2023-01-05T05:28:31.651Z,100342.63
2023-01-05T05:30:57.086Z,100348.78
2023-01-05T05:33:20.845Z,100347.81
2023-01-05T05:35:44.443Z,100351.16
2023-01-05T05:38:07.985Z,100343.81
2023-01-05T05:40:31.508Z,100340.81
2023-01-05T05:42:55.224Z,100337.72
2023-01-05T05:45:18.963Z,100340.34
2023-01-05T05:47:44.932Z,100345.00
2023-01-05T05:50:09.687Z,100373.56
2023-01-05T05:52:33.291Z,100383.09
2023-01-05T05:54:56.831Z,100385.03
2023-01-05T05:57:20.397Z,100378.66
2023-01-05T05:59:43.990Z,100369.75
2023-01-05T06:02:07.596Z,100363.63
2023-01-05T06:04:32.600Z,100370.00
2023-01-05T06:06:56.269Z,100372.53
2023-01-05T06:09:19.832Z,100372.03
2023-01-05T06:11:43.607Z,100365.59
2023-01-05T06:14:07.785Z,100379.00
2023-01-05T06:16:31.422Z,100384.19
2023-01-05T06:18:54.958Z,100384.19
2023-01-05T06:21:21.444Z,100388.09
2023-01-05T06:23:45.008Z,100386.09
2023-01-05T06:26:09.208Z,100399.88
2023-01-05T06:28:32.792Z,100391.97
2023-01-05T06:30:56.435Z,100395.16
2023-01-05T06:33:20.040Z,100397.31
2023-01-05T06:35:43.622Z,100400.63
2023-01-05T06:38:11.000Z,100412.06
2023-01-05T06:40:34.609Z,100411.53
2023-01-05T06:42:58.135Z,100417.47
2023-01-05T06:45:22.043Z,100412.41
2023-01-05T06:47:46.052Z,100426.50
2023-01-05T06:50:10.949Z,100424.00
2023-01-05T06:52:36.826Z,100431.91
2023-01-05T06:55:01.805Z,100436.22
2023-01-05T06:57:25.488Z,100434.91
2023-01-05T06:59:49.235Z,100433.75
2023-01-05T07:02:16.893Z,100434.63
2023-01-05T07:04:40.578Z,100444.38
2023-01-05T07:07:04.095Z,100444.22
2023-01-05T07:09:27.730Z,100440.97
2023-01-05T07:11:52.672Z,100440.59
2023-01-05T07:14:16.692Z,100448.28
2023-01-05T07:16:40.310Z,100441.69
2023-01-05T07:19:03.954Z,100441.00
2023-01-05T07:21:27.508Z,100445.88
2023-01-05T07:23:51.094Z,100443.41
2023-01-05T07:26:14.684Z,100453.88
2023-01-05T07:28:39.699Z,100449.72
2023-01-05T07:31:03.451Z,100459.72
2023-01-05T07:33:27.045Z,100463.03
2023-01-05T07:35:50.598Z,100471.94
2023-01-05T07:38:14.293Z,100477.50
2023-01-05T07:40:37.842Z,100482.16
2023-01-05T07:43:01.482Z,100486.31
2023-01-05T07:45:26.446Z,100490.31
2023-01-05T07:47:50.084Z,100502.09
2023-01-05T07:50:14.255Z,100517.72
2023-01-05T07:52:39.168Z,100522.81
2023-01-05T07:55:02.703Z,100516.25
2023-01-05T07:57:26.376Z,100517.22
2023-01-05T07:59:49.879Z,100527.97
2023-01-05T08:02:14.964Z,100525.50
2023-01-05T08:04:38.663Z,100530.47
2023-01-05T08:07:02.950Z,100533.66
2023-01-05T08:09:43.576Z,100534.53
2023-01-05T08:12:07.964Z,100549.75
2023-01-05T08:14:31.499Z,100556.81
2023-01-05T08:16:55.151Z,100544.84
2023-01-05T08:19:20.523Z,100564.47
2023-01-05T08:21:44.122Z,100564.69
2023-01-05T08:24:08.791Z,100565.16
2023-01-05T08:26:32.377Z,100570.63
2023-01-05T08:28:55.921Z,100570.03
2023-01-05T08:31:22.535Z,100573.56
2023-01-05T08:33:46.487Z,100585.38
2023-01-05T08:36:14.605Z,100587.81
2023-01-05T08:38:38.190Z,100583.72
2023-01-05T08:41:01.854Z,100576.25
2023-01-05T08:43:25.419Z,100573.00
2023-01-05T08:45:51.189Z,100569.91
2023-01-05T08:48:14.731Z,100587.09
2023-01-05T08:50:38.502Z,100589.16
2023-01-05T08:53:03.454Z,100598.19
2023-01-05T08:55:27.014Z,100594.63
2023-01-05T08:57:50.791Z,100605.34
2023-01-05T09:00:17.370Z,100602.19
2023-01-05T09:02:41.153Z,100599.50
2023-01-05T09:05:05.116Z,100600.13
2023-01-05T09:07:28.909Z,100613.50
2023-01-05T09:09:53.872Z,100606.84
2023-01-05T09:12:17.563Z,100615.09
2023-01-05T09:14:41.247Z,100619.22
2023-01-05T09:17:07.423Z,100622.28
2023-01-05T09:19:31.956Z,100629.25
2023-01-05T09:21:56.091Z,100613.66
2023-01-05T09:24:19.910Z,100628.06
2023-01-05T09:26:45.153Z,100633.28
2023-01-05T09:29:08.900Z,100631.22
2023-01-05T09:31:32.542Z,100642.78
2023-01-05T09:33:57.743Z,100655.97
2023-01-05T09:36:21.540Z,100641.13
2023-01-05T09:38:49.916Z,100656.72
2023-01-05T09:41:26.063Z,100662.47
2023-01-05T09:43:56.082Z,100658.34
2023-01-05T09:46:24.845Z,100680.56
2023-01-05T09:48:52.470Z,100680.25
2023-01-05T09:51:16.118Z,100674.22
2023-01-05T09:53:40.863Z,100693.47
2023-01-05T09:56:05.491Z,100674.53
2023-01-05T09:58:33.130Z,100671.78
2023-01-05T10:01:09.862Z,100669.84
2023-01-05T10:06:18.823Z,100677.72
2023-01-05T10:08:46.729Z,100665.66
2023-01-05T10:11:32.739Z,100664.59
2023-01-05T10:14:02.840Z,100681.00
2023-01-05T10:16:29.859Z,100686.66
2023-01-05T10:18:54.515Z,100678.59
2023-01-05T10:21:32.455Z,100668.50
2023-01-05T10:24:13.626Z,100683.84
2023-01-05T10:27:22.990Z,100675.44
2023-01-05T10:29:38.501Z,100688.59
2023-01-05T10:32:13.206Z,100690.69
2023-01-05T10:34:53.282Z,100683.88
2023-01-05T10:37:44.165Z,100695.31
2023-01-05T10:40:28.092Z,100696.91
2023-01-05T10:43:10.843Z,100707.53
2023-01-05T10:45:34.634Z,100683.97
2023-01-05T10:48:00.839Z,100708.34
2023-01-05T10:50:35.874Z,100702.63
2023-01-05T10:53:00.647Z,100703.34
2023-01-05T10:55:25.396Z,100716.91
2023-01-05T10:57:49.487Z,100713.25
2023-01-05T11:00:18.012Z,100716.19
2023-01-05T11:02:47.492Z,100721.19
2023-01-05T11:05:33.986Z,100704.94
2023-01-05T11:08:00.645Z,100731.91
2023-01-05T11:10:30.248Z,100736.78
2023-01-05T11:13:03.252Z,100737.03
2023-01-05T11:15:26.997Z,100747.03
2023-01-05T11:17:50.665Z,100745.06
2023-01-05T11:20:19.422Z,100746.78
2023-01-05T11:22:44.467Z,100751.94
2023-01-05T11:25:28.197Z,100758.13
2023-01-05T11:28:14.932Z,100760.94
2023-01-05T11:30:40.454Z,100756.31
2023-01-05T11:33:04.065Z,100771.31
2023-01-05T11:35:33.466Z,100762.66
2023-01-05T11:37:58.087Z,100762.13
2023-01-05T11:40:29.144Z,100761.91
2023-01-05T11:42:52.813Z,100775.44
2023-01-05T11:45:23.047Z,100783.75
2023-01-05T11:47:50.553Z,100782.41
2023-01-05T11:50:24.846Z,100789.59
2023-01-05T11:52:51.663Z,100785.44
2023-01-05T11:55:35.279Z,100794.13
2023-01-05T11:58:25.650Z,100830.88
2023-01-05T12:01:33.121Z,100804.88
2023-01-05T12:04:05.099Z,100807.69
2023-01-05T12:06:57.330Z,100819.03
2023-01-05T12:09:34.427Z,100815.84
2023-01-05T12:12:15.339Z,100822.28
2023-01-05T12:15:32.843Z,100835.63
2023-01-05T12:18:08.335Z,100843.06
2023-01-05T12:20:56.507Z,100853.91
2023-01-05T12:23:53.039Z,100846.59
2023-01-05T12:26:25.754Z,100856.69
2023-01-05T12:35:43.281Z,100860.13
2023-01-05T12:38:25.517Z,100869.31
2023-01-05T12:41:23.145Z,100869.53
2023-01-05T12:44:04.961Z,100869.63
2023-01-05T12:46:44.228Z,100880.75
2023-01-05T12:49:15.115Z,100876.44
2023-01-05T12:51:44.949Z,100880.75
2023-01-05T12:54:22.316Z,100886.03
2023-01-05T12:56:52.542Z,100884.81
2023-01-05T12:59:23.702Z,100900.91
2023-01-05T13:02:01.601Z,100902.59
2023-01-05T13:04:46.235Z,100904.34
2023-01-05T13:07:17.447Z,100908.75
2023-01-05T13:09:42.532Z,100909.97
2023-01-05T13:12:10.574Z,100924.06
2023-01-05T13:14:37.199Z,100919.44
2023-01-05T13:17:05.743Z,100922.88
2023-01-05T13:19:36.495Z,100927.25
2023-01-05T13:22:03.144Z,100934.66
2023-01-05T13:24:34.185Z,100931.88
2023-01-05T13:27:00.570Z,100946.00
2023-01-05T13:29:29.140Z,100962.56
2023-01-05T13:32:42.429Z,100964.72
2023-01-05T13:35:21.110Z,100973.63
2023-01-05T13:38:35.710Z,100970.06
2023-01-05T13:41:21.036Z,100997.84
2023-01-05T13:44:15.555Z,100997.03
2023-01-05T13:47:06.473Z,101007.75
2023-01-05T13:50:09.301Z,101015.25
2023-01-05T13:52:51.016Z,101021.56
2023-01-05T13:55:25.706Z,101020.63
2023-01-05T13:57:50.969Z,101033.69
2023-01-05T14:00:27.511Z,101042.41
2023-01-05T14:03:07.047Z,101063.06
2023-01-05T14:05:34.407Z,101055.06
2023-01-05T14:08:00.601Z,101068.53
2023-01-05T14:10:27.308Z,101065.00
2023-01-05T14:12:54.130Z,101070.78
2023-01-05T14:15:38.738Z,101075.00
2023-01-05T14:18:04.608Z,101083.41
2023-01-05T14:20:46.356Z,101091.00
2023-01-05T14:23:55.651Z,101091.13
2023-01-05T14:26:57.602Z,101096.88
2023-01-05T14:30:01.165Z,101106.63
2023-01-05T14:32:28.829Z,101107.19
2023-01-05T14:37:30.833Z,101135.59
2023-01-05T14:40:04.054Z,101132.06
2023-01-05T14:42:36.469Z,101138.88
2023-01-05T14:45:03.278Z,101139.38
2023-01-05T14:47:39.818Z,101139.31
2023-01-05T14:50:07.717Z,101148.69
2023-01-05T14:52:59.419Z,101157.28
2023-01-05T14:55:38.324Z,101159.19
2023-01-05T14:58:05.716Z,101166.13
2023-01-05T15:00:54.385Z,101178.16
2023-01-05T15:03:25.663Z,101194.47
2023-01-05T15:06:01.791Z,101201.94
2023-01-05T15:09:07.567Z,101204.41
2023-01-05T15:12:22.333Z,101211.84
2023-01-05T15:15:09.242Z,101209.06
2023-01-05T15:18:26.834Z,101227.41
2023-01-05T15:21:39.850Z,101225.41
2023-01-05T15:24:59.971Z,101230.19
2023-01-05T15:27:52.988Z,101235.03
2023-01-05T15:30:48.604Z,101242.31
2023-01-05T15:33:19.307Z,101249.84
2023-01-05T15:35:49.867Z,101253.19
2023-01-05T15:38:25.263Z,101256.25
2023-01-05T15:40:50.390Z,101260.38
2023-01-05T15:43:18.023Z,101253.69
2023-01-05T15:45:43.435Z,101252.75
2023-01-05T15:48:11.161Z,101263.91
2023-01-05T15:50:41.103Z,101270.41
2023-01-05T15:53:04.849Z,101270.47
2023-01-05T15:55:31.588Z,101285.00
2023-01-05T15:57:58.509Z,101283.19
2023-01-05T16:00:26.311Z,101287.84
2023-01-05T16:02:49.931Z,101293.69
2023-01-05T16:05:16.972Z,101305.81
2023-01-05T16:07:54.703Z,101296.38
2023-01-05T16:10:25.468Z,101303.44
2023-01-05T16:12:56.354Z,101308.97
2023-01-05T16:15:23.837Z,101318.59
2023-01-05T16:17:47.760Z,101312.59
2023-01-05T16:20:17.947Z,101323.63
2023-01-05T16:22:47.824Z,101329.34
2023-01-05T16:25:18.523Z,101335.78
2023-01-05T16:27:45.407Z,101335.31
2023-01-05T16:30:30.534Z,101345.72
2023-01-05T16:32:59.272Z,101345.84
2023-01-05T16:35:33.094Z,101346.50
2023-01-05T16:38:25.128Z,101350.50
2023-01-05T16:41:11.162Z,101352.91
2023-01-05T16:43:38.400Z,101362.50
2023-01-05T16:46:32.877Z,101362.81
2023-01-05T16:49:00.586Z,101363.03
2023-01-05T16:51:25.976Z,101373.56
2023-01-05T16:53:52.314Z,101375.84
2023-01-05T16:56:24.038Z,101379.56
2023-01-05T16:58:47.700Z,101379.50
2023-01-05T17:01:28.222Z,101385.06
2023-01-05T17:03:54.442Z,101376.38
2023-01-05T17:06:27.160Z,101376.28
2023-01-05T17:08:50.935Z,101386.66
2023-01-05T17:11:14.563Z,101382.78
2023-01-05T17:13:43.732Z,101387.44
2023-01-05T17:16:08.296Z,101393.38
2023-01-05T17:18:31.996Z,101407.50
2023-01-05T17:20:59.337Z,101398.25
2023-01-05T17:23:25.947Z,101407.19
2023-01-05T17:25:50.571Z,101404.38
2023-01-05T17:30:43.241Z,101413.44
2023-01-05T17:33:07.241Z,101411.34
2023-01-05T17:35:31.238Z,101420.06
2023-01-05T17:37:56.251Z,101428.72
2023-01-05T17:40:22.086Z,101429.09
2023-01-05T17:42:46.310Z,101430.66
2023-01-05T17:45:13.083Z,101423.41
2023-01-05T17:47:36.775Z,101416.53
2023-01-05T17:50:00.413Z,101420.63
2023-01-05T17:52:24.016Z,101423.53
2023-01-05T17:54:48.930Z,101430.66
2023-01-05T17:57:13.393Z,101433.59
2023-01-05T17:59:36.973Z,101453.75
2023-01-05T18:02:00.564Z,101449.16
2023-01-05T18:04:25.487Z,101453.91
2023-01-05T18:06:50.822Z,101459.63
2023-01-05T18:09:14.433Z,101456.44
2023-01-05T18:11:40.895Z,101461.59
2023-01-05T18:14:04.612Z,101459.09
2023-01-05T18:18:51.760Z,101480.63
2023-01-05T18:21:15.428Z,101484.09
2023-01-05T18:23:39.567Z,101483.94
2023-01-05T18:26:08.618Z,101487.56
2023-01-05T18:28:33.900Z,101487.03
2023-01-05T18:30:57.495Z,101497.66
2023-01-05T18:33:21.123Z,101492.13
2023-01-05T18:35:45.088Z,101504.63
2023-01-05T18:38:08.706Z,101495.31
2023-01-05T18:40:33.024Z,101501.97
2023-01-05T18:42:56.679Z,101507.00
2023-01-05T18:45:31.994Z,101509.19
2023-01-05T18:47:59.355Z,101503.03
2023-01-05T18:50:22.901Z,101499.78
2023-01-05T18:52:46.637Z,101502.41
2023-01-05T18:55:11.284Z,101511.06
2023-01-05T18:57:35.976Z,101520.31
2023-01-05T19:00:00.070Z,101524.56
2023-01-05T19:02:26.010Z,101529.22
2023-01-05T19:04:49.715Z,101532.13
2023-01-05T19:07:13.492Z,101535.25
2023-01-05T19:09:38.156Z,101540.00
2023-01-05T19:12:01.784Z,101541.19
2023-01-05T19:14:25.340Z,101544.84
2023-01-05T19:16:49.561Z,101548.00
2023-01-05T19:19:16.225Z,101546.53
2023-01-05T19:21:42.167Z,101546.59
2023-01-05T19:24:08.159Z,101545.44
2023-01-05T19:26:36.124Z,101552.06
2023-01-05T19:29:00.543Z,101563.25
2023-01-05T19:31:24.177Z,101560.53
2023-01-05T19:33:47.788Z,101558.63
2023-01-05T19:36:16.145Z,101560.81
2023-01-05T19:38:40.476Z,101570.63
2023-01-05T19:41:07.765Z,101567.88
2023-01-05T19:43:31.394Z,101566.31
2023-01-05T19:46:00.280Z,101560.88
2023-01-05T19:48:23.865Z,101565.13
2023-01-05T19:50:57.858Z,101561.91
2023-01-05T19:53:22.862Z,101568.66
2023-01-05T19:55:46.369Z,101575.13
2023-01-05T19:58:09.997Z,101570.16
2023-01-05T20:00:33.493Z,101575.19
2023-01-05T20:02:57.171Z,101578.09
2023-01-05T20:05:21.001Z,101584.50
2023-01-05T20:07:44.595Z,101595.22
2023-01-05T20:10:10.841Z,101593.19
2023-01-05T20:12:34.480Z,101596.47
2023-01-05T20:14:58.003Z,101592.16
2023-01-05T20:17:21.628Z,101599.38
2023-01-05T20:19:45.419Z,101603.19
2023-01-05T20:22:13.808Z,101606.66
2023-01-05T20:24:37.834Z,101605.44
2023-01-05T20:27:06.682Z,101609.03
2023-01-05T20:29:31.751Z,101614.63
2023-01-05T20:31:58.950Z,101625.94
2023-01-05T20:34:25.372Z,101621.88
2023-01-05T20:36:50.367Z,101625.31
2023-01-05T20:39:17.768Z,101626.31
2023-01-05T20:41:43.748Z,101630.81
2023-01-05T20:44:09.920Z,101626.75
2023-01-05T20:46:37.619Z,101625.94
2023-01-05T20:49:01.540Z,101622.97
2023-01-05T20:51:25.502Z,101634.81
2023-01-05T20:53:49.791Z,101634.94
2023-01-05T20:56:16.163Z,101640.94
2023-01-05T20:58:40.809Z,101636.38
2023-01-05T21:01:10.831Z,101640.94
2023-01-05T21:03:35.387Z,101636.31
2023-01-05T21:05:58.902Z,101646.91
2023-01-05T21:08:22.589Z,101650.28
2023-01-05T21:10:46.210Z,101648.53
2023-01-05T21:13:32.308Z,101654.72
2023-01-05T21:15:59.301Z,101657.00
2023-01-05T21:18:25.021Z,101663.13
2023-01-05T21:20:48.586Z,101665.25
2023-01-05T21:23:12.141Z,101664.56
2023-01-05T21:26:05.622Z,101668.38
2023-01-05T21:28:20.666Z,101673.25
2023-01-05T21:30:45.080Z,101669.81
2023-01-05T21:33:08.913Z,101669.66
2023-01-05T21:35:33.895Z,101675.09
2023-01-05T21:37:57.484Z,101682.44
2023-01-05T21:40:21.149Z,101675.22
2023-01-05T21:42:45.311Z,101683.34
2023-01-05T21:45:11.550Z,101674.56
2023-01-05T21:47:35.953Z,101674.13
2023-01-05T21:49:59.568Z,101683.72
2023-01-05T21:52:41.950Z,101681.94
2023-01-05T21:55:23.371Z,101684.28
2023-01-05T21:57:47.002Z,101677.88
2023-01-05T22:00:12.511Z,101682.97
2023-01-05T22:02:36.324Z,101692.44
2023-01-05T22:04:59.876Z,101688.19
2023-01-05T22:07:24.931Z,101690.28
2023-01-05T22:09:48.470Z,101680.31
2023-01-05T22:12:12.229Z,101686.97
2023-01-05T22:14:36.342Z,101679.03
2023-01-05T22:16:59.951Z,101687.41
2023-01-05T22:19:23.622Z,101683.72
2023-01-05T22:21:47.257Z,101677.09
2023-01-05T22:24:14.177Z,101691.00
2023-01-05T22:26:37.859Z,101690.94
2023-01-05T22:29:01.435Z,101690.38
2023-01-05T22:31:28.309Z,101697.94
2023-01-05T22:33:54.213Z,101690.06
2023-01-05T22:36:19.499Z,101696.81
2023-01-05T22:38:45.026Z,101697.34
2023-01-05T22:41:13.290Z,101701.19
2023-01-05T22:43:38.725Z,101699.50
2023-01-05T22:46:03.603Z,101701.97
2023-01-05T22:48:27.212Z,101704.72
2023-01-05T22:50:50.809Z,101702.97
2023-01-05T22:53:14.652Z,101701.53
2023-01-05T22:55:38.257Z,101704.09
2023-01-05T22:58:03.262Z,101710.16
2023-01-05T23:00:26.902Z,101707.25
2023-01-05T23:02:50.583Z,101707.53
2023-01-05T23:05:14.593Z,101710.00
2023-01-05T23:07:38.132Z,101712.06
2023-01-05T23:10:01.784Z,101702.03
2023-01-05T23:12:25.316Z,101706.75
2023-01-05T23:14:50.330Z,101713.41
2023-01-05T23:17:13.856Z,101713.91
2023-01-05T23:19:37.436Z,101710.63
2023-01-05T23:22:01.343Z,101718.81
2023-01-05T23:24:25.234Z,101730.66
2023-01-05T23:26:48.813Z,101721.44
2023-01-05T23:29:12.454Z,101714.94
2023-01-05T23:31:37.465Z,101722.22
2023-01-05T23:34:01.110Z,101725.03
2023-01-05T23:36:24.846Z,101718.16
2023-01-05T23:38:49.163Z,101723.72
2023-01-05T23:41:14.809Z,101722.06
2023-01-05T23:43:42.029Z,101719.25
2023-01-05T23:46:08.285Z,101702.50
2023-01-05T23:48:34.328Z,101695.75
2023-01-05T23:50:58.974Z,101695.81
2023-01-05T23:53:22.578Z,101696.91
2023-01-05T23:55:46.070Z,101695.91
2023-01-05T23:58:10.368Z,101688.34
